Time;durP1;ratioP1;P1;durP2;ratioP2;P2;SDS_P1;SDS_P2;PMS_P1;PMS_P2;Temp;Humidity;BMP_temperature;BMP_pressure;BME280_temperature;BME280_humidity;BME280_pressure;Samples;Min_cycle;Max_cycle;Signal;HPM_P1;HPM_P2
2022/04/03 00:01:38;;;;;;;12.20;11.17;;;;;;;-1.89;78.61;102038.78;5072830;28;20465;-48
2022/04/03 00:04:07;;;;;;;13.53;12.20;;;;;;;-1.91;78.84;102038.00;5073321;28;20474;-46
2022/04/03 00:06:35;;;;;;;12.00;11.10;;;;;;;-1.91;78.97;102040.63;5073181;28;20977;-44
2022/04/03 00:09:02;;;;;;;12.50;11.60;;;;;;;-1.90;79.01;102044.06;5073126;28;20942;-45
2022/04/03 00:11:30;;;;;;;10.63;10.03;;;;;;;-1.94;79.27;102032.94;5072351;28;20454;-46
2022/04/03 00:13:58;;;;;;;11.60;10.93;;;;;;;-1.94;79.10;102030.31;5072082;28;20433;-47
2022/04/03 00:16:26;;;;;;;11.73;10.97;;;;;;;-1.94;78.90;102027.72;5072966;28;20454;-46
2022/04/03 00:18:53;;;;;;;13.37;10.77;;;;;;;-1.95;79.13;102031.28;5072821;28;20434;-49
2022/04/03 00:21:23;;;;;;;11.00;10.20;;;;;;;-1.95;79.06;102022.59;5072242;28;20439;-46
2022/04/03 00:23:50;;;;;;;11.53;10.73;;;;;;;-1.96;79.04;102026.13;5072733;28;20433;-47
2022/04/03 00:26:18;;;;;;;11.73;10.70;;;;;;;-1.98;78.95;102026.22;5072557;28;20540;-45
2022/04/03 00:28:46;;;;;;;12.63;11.70;;;;;;;-2.01;79.12;102023.78;5073060;28;20434;-47
2022/04/03 00:31:13;;;;;;;11.93;11.17;;;;;;;-2.02;79.05;102019.47;5072072;28;20454;-44
2022/04/03 00:33:43;;;;;;;12.50;11.70;;;;;;;-2.06;78.76;102031.00;5072844;28;20538;-44
2022/04/03 00:36:11;;;;;;;12.80;11.60;;;;;;;-2.09;78.86;102019.91;5072421;28;20481;-44
2022/04/03 00:38:40;;;;;;;12.00;11.10;;;;;;;-2.10;79.35;102016.44;5072566;28;20430;-43
2022/04/03 00:41:08;;;;;;;12.10;11.30;;;;;;;-2.12;79.12;102025.28;5071647;28;20444;-43
2022/04/03 00:43:35;;;;;;;14.23;13.13;;;;;;;-2.13;79.31;102018.38;5072378;28;20422;-45
2022/04/03 00:46:05;;;;;;;13.70;12.40;;;;;;;-2.15;79.48;102021.06;5072067;28;20999;-44
2022/04/03 00:48:32;;;;;;;12.70;11.70;;;;;;;-2.18;79.29;102018.59;5072383;28;20434;-45
2022/04/03 00:51:00;;;;;;;13.23;12.20;;;;;;;-2.20;79.54;102015.25;5065284;28;20431;-44
2022/04/03 00:53:28;;;;;;;13.10;11.90;;;;;;;-2.21;79.26;102017.97;5064777;28;20473;-43
2022/04/03 00:55:57;;;;;;;13.37;12.17;;;;;;;-2.26;79.33;102011.19;5072035;28;20450;-44
2022/04/03 00:58:25;;;;;;;12.93;12.03;;;;;;;-2.28;79.17;102012.22;5072274;28;20988;-43
2022/04/03 01:00:52;;;;;;;12.93;11.93;;;;;;;-2.32;79.92;102005.47;5067336;28;20441;-48
2022/04/03 01:03:20;;;;;;;13.53;12.47;;;;;;;-2.36;80.14;102004.78;5071570;28;20462;-44
2022/04/03 01:05:48;;;;;;;12.17;11.27;;;;;;;-2.39;80.36;102010.16;5071417;28;20482;-44
2022/04/03 01:08:17;;;;;;;13.87;12.73;;;;;;;-2.43;80.29;102013.03;5072227;28;20442;-46
2022/04/03 01:10:45;;;;;;;13.60;12.60;;;;;;;-2.45;80.07;102005.28;5071970;28;20510;-45
2022/04/03 01:13:14;;;;;;;13.47;12.47;;;;;;;-2.47;80.79;102014.13;5071441;28;20830;-44
2022/04/03 01:15:42;;;;;;;12.00;11.10;;;;;;;-2.50;80.25;102003.84;5071751;28;20447;-45
2022/04/03 01:18:10;;;;;;;13.30;12.30;;;;;;;-2.54;80.26;102008.38;5071927;28;20802;-45
2022/04/03 01:20:37;;;;;;;12.87;11.77;;;;;;;-2.55;80.72;102013.69;5071650;28;20492;-44
2022/04/03 01:23:05;;;;;;;12.93;12.03;;;;;;;-2.59;80.58;101999.09;5071277;28;20462;-48
2022/04/03 01:25:34;;;;;;;12.00;11.20;;;;;;;-2.62;80.82;101994.91;5071515;28;20474;-47
2022/04/03 01:28:01;;;;;;;13.20;12.20;;;;;;;-2.64;81.21;101998.50;5071651;28;20971;-43
2022/04/03 01:30:29;;;;;;;13.73;12.63;;;;;;;-2.68;81.01;101994.38;5071369;28;20430;-45
2022/04/03 01:32:57;;;;;;;13.20;12.30;;;;;;;-2.71;80.78;101998.00;5071046;28;20458;-44
2022/04/03 01:35:24;;;;;;;13.30;12.20;;;;;;;-2.75;81.42;101996.50;5071316;28;20461;-45
2022/04/03 01:37:52;;;;;;;13.77;12.77;;;;;;;-2.78;82.23;101992.25;5071460;28;20949;-44
2022/04/03 01:40:20;;;;;;;13.93;12.80;;;;;;;-2.83;82.42;101986.44;5071591;28;20430;-47
2022/04/03 01:42:50;;;;;;;14.03;13.03;;;;;;;-2.87;82.36;101987.50;5071043;28;20469;-44
2022/04/03 01:45:17;;;;;;;14.17;13.13;;;;;;;-2.89;82.58;101983.28;5071197;28;21054;-44
2022/04/03 01:47:45;;;;;;;13.93;12.83;;;;;;;-2.92;82.82;101979.09;5071204;28;20445;-43
2022/04/03 01:50:12;;;;;;;13.57;12.50;;;;;;;-2.93;83.01;101982.59;5071340;28;20434;-49
2022/04/03 01:52:40;;;;;;;13.47;12.57;;;;;;;-2.95;83.03;101983.63;5063901;28;20549;-44
2022/04/03 01:55:09;;;;;;;14.40;13.20;;;;;;;-2.99;83.15;101980.34;5071345;28;20450;-43
2022/04/03 01:57:37;;;;;;;14.03;12.93;;;;;;;-3.00;83.76;101977.81;5071409;28;20438;-45
2022/04/03 02:00:09;;;;;;;13.27;12.30;;;;;;;-3.00;83.89;101976.03;5071103;28;20430;-43
2022/04/03 02:02:37;;;;;;;14.40;13.30;;;;;;;-2.99;83.60;101980.34;5070626;28;21040;-47
2022/04/03 02:05:06;;;;;;;11.13;10.53;;;;;;;-2.99;83.81;101972.53;5071298;28;20561;-47
2022/04/03 02:07:33;;;;;;;11.97;11.07;;;;;;;-2.97;83.90;101975.03;5071354;28;20458;-43
2022/04/03 02:10:02;;;;;;;12.20;11.20;;;;;;;-2.98;83.80;101965.50;5071150;28;20439;-43
2022/04/03 02:12:30;;;;;;;12.57;11.50;;;;;;;-2.98;83.79;101965.50;5070478;28;20459;-48
2022/04/03 02:14:57;;;;;;;14.03;12.93;;;;;;;-2.98;83.82;101966.34;5071330;28;20438;-45
2022/04/03 02:17:26;;;;;;;12.60;11.70;;;;;;;-2.98;83.68;101958.53;5071045;28;20435;-45
2022/04/03 02:19:54;;;;;;;14.07;12.93;;;;;;;-2.97;83.79;101954.16;5066804;28;20439;-44
2022/04/03 02:22:22;;;;;;;12.63;11.73;;;;;;;-2.98;83.82;101947.25;5070493;28;20462;-46
2022/04/03 02:24:49;;;;;;;12.80;11.60;;;;;;;-2.98;83.92;101947.25;5070979;28;20430;-46
2022/04/03 02:27:17;;;;;;;11.63;10.60;;;;;;;-2.97;83.75;101946.31;5070929;28;20430;-44
2022/04/03 02:29:45;;;;;;;12.07;11.30;;;;;;;-2.97;83.75;101946.31;5071244;28;20430;-48
2022/04/03 02:32:12;;;;;;;12.13;11.20;;;;;;;-2.96;84.04;101940.19;5070339;28;20464;-48
2022/04/03 02:34:41;;;;;;;12.40;11.50;;;;;;;-2.94;84.08;101946.16;5071049;28;20437;-47
2022/04/03 02:37:14;;;;;;;12.33;11.43;;;;;;;-2.94;84.08;101949.63;5071570;28;20439;-46
2022/04/03 02:39:44;;;;;;;12.73;11.40;;;;;;;-2.93;84.03;101940.84;5074738;28;20513;-48
2022/04/03 02:42:12;;;;;;;11.93;11.13;;;;;;;-2.93;83.88;101940.84;5073993;28;20968;-47
2022/04/03 02:44:39;;;;;;;12.27;11.37;;;;;;;-2.93;84.20;101938.25;5074546;28;20448;-45
2022/04/03 02:47:07;;;;;;;12.57;11.17;;;;;;;-2.92;83.82;101933.88;5060320;28;20478;-47
2022/04/03 02:49:35;;;;;;;10.87;10.27;;;;;;;-2.91;83.98;101930.34;5072215;28;20427;-45
2022/04/03 02:52:05;;;;;;;14.00;12.63;;;;;;;-2.88;84.26;101927.56;5073924;28;20458;-47
2022/04/03 02:54:33;;;;;;;12.07;11.13;;;;;;;-2.81;84.71;101926.34;5074507;28;20426;-46
2022/04/03 02:57:01;;;;;;;11.40;10.50;;;;;;;-2.71;84.97;101929.25;5071204;28;20450;-45
2022/04/03 02:59:28;;;;;;;11.63;10.83;;;;;;;-2.62;85.28;101920.94;5074575;28;20456;-43
2022/04/03 03:01:56;;;;;;;13.20;11.87;;;;;;;-2.57;84.99;101932.81;5073614;28;20458;-44
2022/04/03 03:04:24;;;;;;;12.07;11.27;;;;;;;-2.52;85.45;101919.50;5074197;28;20438;-45
2022/04/03 03:06:51;;;;;;;12.43;11.60;;;;;;;-2.51;85.58;101916.81;5074150;28;20480;-43
2022/04/03 03:09:20;;;;;;;11.90;11.00;;;;;;;-2.49;85.53;101912.34;5074034;28;20450;-44
2022/04/03 03:11:48;;;;;;;11.10;10.50;;;;;;;-2.49;85.47;101911.50;5073477;28;20454;-43
2022/04/03 03:14:17;;;;;;;12.93;11.60;;;;;;;-2.48;85.70;101905.38;5074124;28;20933;-48
2022/04/03 03:16:44;;;;;;;12.10;11.40;;;;;;;-2.48;85.71;101905.38;5074124;28;20450;-43
2022/04/03 03:19:12;;;;;;;10.53;9.93;;;;;;;-2.46;85.70;101900.91;5073929;28;20430;-48
2022/04/03 03:21:40;;;;;;;10.80;10.10;;;;;;;-2.45;85.83;101908.63;5073256;28;20458;-45
2022/04/03 03:24:08;;;;;;;10.43;9.73;;;;;;;-2.42;85.75;101897.19;5074257;28;20427;-46
2022/04/03 03:26:37;;;;;;;11.23;10.53;;;;;;;-2.37;86.29;101900.38;5073820;28;20474;-43
2022/04/03 03:29:05;;;;;;;10.73;9.83;;;;;;;-2.29;86.77;101885.13;5073991;28;20506;-49
2022/04/03 03:31:33;;;;;;;10.30;9.70;;;;;;;-2.18;87.27;101892.38;5072939;28;20537;-48
2022/04/03 03:34:00;;;;;;;11.63;10.83;;;;;;;-2.07;87.42;101885.59;5073690;28;20945;-47
2022/04/03 03:36:28;;;;;;;10.80;10.20;;;;;;;-1.95;87.64;101891.88;5073427;28;21001;-43
2022/04/03 03:38:56;;;;;;;11.17;10.00;;;;;;;-1.82;88.12;101885.00;5073844;28;20430;-45
2022/04/03 03:41:23;;;;;;;10.60;9.93;;;;;;;-1.71;88.39;101883.47;5073001;28;20805;-43
2022/04/03 03:43:52;;;;;;;11.50;10.80;;;;;;;-1.61;88.77;101878.50;5073732;28;20426;-45
2022/04/03 03:46:20;;;;;;;11.60;10.80;;;;;;;-1.51;88.44;101878.81;5071733;28;20984;-42
2022/04/03 03:48:48;;;;;;;12.13;11.30;;;;;;;-1.44;89.30;101874.91;5072295;28;20441;-43
2022/04/03 03:51:15;;;;;;;11.97;10.83;;;;;;;-1.37;89.02;101881.41;5072979;28;20437;-46
2022/04/03 03:53:43;;;;;;;10.80;10.10;;;;;;;-1.30;89.39;101880.13;5073567;28;20422;-44
2022/04/03 03:56:11;;;;;;;10.70;9.90;;;;;;;-1.27;89.27;101865.09;5073478;28;20810;-44
2022/04/03 03:58:38;;;;;;;11.60;10.90;;;;;;;-1.25;89.17;101871.06;5073340;28;20921;-43
2022/04/03 04:01:07;;;;;;;10.50;9.80;;;;;;;-1.25;89.08;101875.44;5072890;28;20434;-44
2022/04/03 04:03:35;;;;;;;10.97;10.30;;;;;;;-1.27;88.77;101869.47;5072983;28;20450;-47
2022/04/03 04:06:03;;;;;;;11.20;10.50;;;;;;;-1.30;88.30;101873.13;5073312;28;20477;-45
2022/04/03 04:08:31;;;;;;;11.77;11.07;;;;;;;-1.30;88.42;101869.66;5073120;28;20461;-44
2022/04/03 04:10:59;;;;;;;10.77;10.20;;;;;;;-1.29;88.53;101863.50;5072909;28;20432;-44
2022/04/03 04:13:31;;;;;;;11.30;10.70;;;;;;;-1.27;88.32;101859.84;5072508;28;20820;-45
2022/04/03 04:15:59;;;;;;;11.30;10.60;;;;;;;-1.21;89.20;101853.41;5073098;28;20455;-43
2022/04/03 04:18:28;;;;;;;11.53;10.73;;;;;;;-1.16;89.10;101859.19;5073181;28;20508;-43
2022/04/03 04:20:57;;;;;;;11.70;10.90;;;;;;;-1.11;89.34;101873.66;5072872;28;20430;-46
2022/04/03 04:23:24;;;;;;;10.90;10.30;;;;;;;-1.03;89.69;101867.97;5072265;28;20810;-44
2022/04/03 04:25:52;;;;;;;10.80;10.20;;;;;;;-0.95;89.81;101857.00;5072683;28;20454;-45
2022/04/03 04:28:20;;;;;;;10.63;9.83;;;;;;;-0.88;89.90;101853.94;5072940;28;21066;-44
2022/04/03 04:30:48;;;;;;;12.30;11.50;;;;;;;-0.85;90.20;101853.75;5072647;28;20435;-43
2022/04/03 04:33:15;;;;;;;11.53;10.77;;;;;;;-0.84;89.73;101860.66;5072146;28;20461;-43
2022/04/03 04:35:44;;;;;;;10.57;9.87;;;;;;;-0.89;89.78;101860.09;5072361;28;20458;-43
2022/04/03 04:38:12;;;;;;;9.83;9.23;;;;;;;-0.95;89.00;101849.16;5072585;28;20430;-43
2022/04/03 04:40:39;;;;;;;10.40;9.80;;;;;;;-1.01;88.57;101850.38;5072157;28;21216;-43
2022/04/03 04:43:07;;;;;;;9.70;9.10;;;;;;;-1.06;88.92;101854.22;5071835;28;20996;-48
2022/04/03 04:45:34;;;;;;;10.20;9.30;;;;;;;-1.12;88.76;101844.97;5072428;28;20461;-47
2022/04/03 04:48:02;;;;;;;11.83;10.90;;;;;;;-1.17;88.94;101847.06;5072389;28;20474;-45
2022/04/03 04:50:31;;;;;;;12.63;11.50;;;;;;;-1.24;89.67;101846.59;5070940;28;20456;-43
2022/04/03 04:53:00;;;;;;;13.43;12.20;;;;;;;-1.29;90.15;101847.81;5071585;28;20458;-46
2022/04/03 04:55:27;;;;;;;12.47;11.57;;;;;;;-1.32;90.78;101853.22;5066057;28;20454;-45
2022/04/03 04:57:57;;;;;;;12.37;11.17;;;;;;;-1.34;91.34;101855.06;5073274;28;20804;-47
2022/04/03 05:00:26;;;;;;;11.40;10.70;;;;;;;-1.35;92.08;101854.25;5072671;28;20423;-46
2022/04/03 05:02:54;;;;;;;11.33;10.60;;;;;;;-1.30;92.62;101851.34;5072588;28;20876;-47
2022/04/03 05:05:23;;;;;;;13.10;10.37;;;;;;;-1.27;92.81;101851.16;5073111;28;20456;-48
2022/04/03 05:07:54;;;;;;;11.63;10.50;;;;;;;-1.21;92.60;101856.03;5073109;28;20473;-48
2022/04/03 05:10:24;;;;;;;9.57;8.97;;;;;;;-1.16;93.24;101849.56;5073349;28;20450;-50
2022/04/03 05:12:53;;;;;;;10.50;9.70;;;;;;;-1.09;93.58;101852.66;5072781;28;20458;-48
2022/04/03 05:15:21;;;;;;;11.63;10.97;;;;;;;-1.04;93.14;101858.44;5072958;28;20450;-46
2022/04/03 05:17:48;;;;;;;11.40;10.60;;;;;;;-0.99;92.76;101851.16;5073175;28;20433;-50
2022/04/03 05:20:17;;;;;;;10.90;10.10;;;;;;;-0.87;93.74;101850.38;5072567;28;20430;-46
2022/04/03 05:22:45;;;;;;;9.97;9.27;;;;;;;-0.68;93.68;101852.66;5072438;28;20460;-47
2022/04/03 05:25:13;;;;;;;10.60;9.80;;;;;;;-0.41;94.74;101847.44;5073008;28;20461;-47
2022/04/03 05:27:44;;;;;;;9.60;9.00;;;;;;;-0.22;94.42;101854.00;5073227;28;20465;-48
2022/04/03 05:30:13;;;;;;;9.03;8.63;;;;;;;-0.13;94.22;101847.31;5072977;28;20480;-48
2022/04/03 05:32:41;;;;;;;9.03;8.50;;;;;;;0.00;93.91;101851.63;5072649;28;20468;-48
2022/04/03 05:35:11;;;;;;;10.07;9.17;;;;;;;0.39;95.11;101844.66;5067474;28;20544;-49
2022/04/03 05:37:43;;;;;;;8.47;7.97;;;;;;;0.95;94.64;101846.84;5054656;28;20431;-48
2022/04/03 05:40:13;;;;;;;8.27;7.87;;;;;;;1.56;94.98;101845.91;5052639;28;20458;-45
2022/04/03 05:42:42;;;;;;;8.33;7.73;;;;;;;2.16;95.05;101835.25;5050364;28;20481;-46
2022/04/03 05:45:10;;;;;;;8.23;7.80;;;;;;;2.56;92.79;101838.31;5058820;28;20469;-46
2022/04/03 05:47:38;;;;;;;9.10;8.47;;;;;;;3.22;92.60;101836.63;5062688;28;20558;-46
2022/04/03 05:50:11;;;;;;;8.60;8.10;;;;;;;3.33;88.41;101842.72;5052242;28;20424;-51
2022/04/03 05:52:40;;;;;;;7.87;7.47;;;;;;;3.03;83.32;101836.41;5051482;28;20459;-46
2022/04/03 05:55:10;;;;;;;8.60;8.10;;;;;;;2.77;80.33;101836.66;5052038;28;20483;-51
2022/04/03 05:57:38;;;;;;;9.23;8.63;;;;;;;2.56;78.67;101833.06;5051660;28;20437;-48
2022/04/03 06:00:12;;;;;;;8.53;8.03;;;;;;;2.28;77.44;101844.00;5051935;28;20427;-47
2022/04/03 06:02:51;;;;;;;8.40;8.10;;;;;;;2.09;77.58;101839.28;5051557;28;20470;-46
2022/04/03 06:05:21;;;;;;;9.40;8.60;;;;;;;2.26;78.84;101845.94;5052505;28;20462;-46
2022/04/03 06:07:50;;;;;;;8.37;7.83;;;;;;;3.41;83.57;101847.34;5052467;28;20558;-46
2022/04/03 06:10:18;;;;;;;8.17;7.60;;;;;;;4.53;87.18;101840.59;5051395;28;20435;-47
2022/04/03 06:12:57;;;;;;;8.43;7.93;;;;;;;4.95;84.25;101844.84;5053001;28;20993;-48
2022/04/03 06:15:28;;;;;;;8.13;7.63;;;;;;;5.83;83.53;101836.09;5071313;28;20460;-47
2022/04/03 06:17:56;;;;;;;7.90;7.60;;;;;;;6.73;80.09;101825.91;5055762;28;20439;-48
2022/04/03 06:20:24;;;;;;;8.70;8.20;;;;;;;7.45;76.52;101832.09;5055187;28;20437;-46
2022/04/03 06:22:52;;;;;;;8.80;8.30;;;;;;;8.21;74.48;101827.16;5054928;28;20461;-51
2022/04/03 06:25:21;;;;;;;8.07;7.77;;;;;;;8.84;72.72;101830.41;5055078;28;20451;-51
2022/04/03 06:27:48;;;;;;;7.30;7.00;;;;;;;9.47;69.71;101832.66;5055360;28;20479;-51
2022/04/03 06:30:16;;;;;;;7.60;7.20;;;;;;;9.88;64.97;101834.38;5055027;28;20434;-46
2022/04/03 06:32:45;;;;;;;7.10;6.70;;;;;;;10.33;61.40;101823.22;5054663;28;20469;-47
2022/04/03 06:35:13;;;;;;;6.23;5.80;;;;;;;10.81;59.29;101828.44;5055332;28;20466;-46
2022/04/03 06:37:42;;;;;;;6.00;5.50;;;;;;;11.19;56.75;101832.16;5054678;28;20450;-47
2022/04/03 06:40:11;;;;;;;5.23;4.93;;;;;;;11.52;56.46;101830.97;5074463;28;20514;-46
2022/04/03 06:42:39;;;;;;;5.20;5.00;;;;;;;11.59;54.95;101820.38;5074453;28;20462;-50
2022/04/03 06:45:07;;;;;;;6.07;5.77;;;;;;;11.00;53.05;101830.72;5074852;28;20831;-50
2022/04/03 06:47:36;;;;;;;5.20;5.00;;;;;;;10.37;53.20;101833.38;5065082;28;20839;-48
2022/04/03 06:50:06;;;;;;;6.93;6.37;;;;;;;9.70;53.79;101836.34;5055093;28;20830;-46
2022/04/03 06:52:34;;;;;;;7.40;7.00;;;;;;;8.98;55.16;101842.28;5054305;28;20465;-46
2022/04/03 06:55:01;;;;;;;8.03;7.70;;;;;;;9.12;58.30;101839.84;5028071;28;21001;-52
2022/04/03 06:57:29;;;;;;;8.67;8.20;;;;;;;9.47;59.30;101843.28;5054813;28;20427;-49
2022/04/03 06:59:57;;;;;;;7.30;7.00;;;;;;;9.92;59.57;101835.69;5054458;28;20435;-51
2022/04/03 07:02:24;;;;;;;8.70;8.10;;;;;;;10.32;57.89;101833.06;5054382;28;20439;-44
2022/04/03 07:04:52;;;;;;;8.17;7.67;;;;;;;10.74;57.44;101834.66;5053832;28;20451;-46
2022/04/03 07:07:24;;;;;;;8.70;8.30;;;;;;;11.16;56.80;101834.31;5053509;28;20427;-51
2022/04/03 07:09:53;;;;;;;9.53;8.83;;;;;;;11.27;52.93;101834.75;5053967;28;20439;-47
2022/04/03 07:12:21;;;;;;;9.53;9.00;;;;;;;11.37;53.27;101830.06;5054535;28;20439;-46
2022/04/03 07:14:50;;;;;;;8.97;8.50;;;;;;;11.30;52.84;101836.25;5054087;28;20461;-47
2022/04/03 07:17:18;;;;;;;9.40;8.70;;;;;;;11.06;52.52;101835.38;5054288;28;20431;-47
2022/04/03 07:19:45;;;;;;;9.40;8.80;;;;;;;10.85;54.36;101828.94;5054582;28;20434;-51
2022/04/03 07:22:13;;;;;;;9.00;8.50;;;;;;;9.95;55.06;101830.88;5060337;28;20442;-52
2022/04/03 07:24:42;;;;;;;8.50;8.10;;;;;;;9.29;57.13;101846.88;5065996;28;20430;-47
2022/04/03 07:27:10;;;;;;;9.57;8.87;;;;;;;8.79;59.04;101843.34;5064608;28;20492;-50
2022/04/03 07:29:38;;;;;;;9.27;8.37;;;;;;;7.89;61.58;101846.31;5072243;28;20474;-48
2022/04/03 07:32:06;;;;;;;8.50;7.97;;;;;;;7.67;63.63;101844.97;5072775;28;20442;-46
2022/04/03 07:34:34;;;;;;;10.50;7.87;;;;;;;7.19;65.07;101850.56;5055435;28;20431;-52
2022/04/03 07:37:02;;;;;;;8.90;8.40;;;;;;;7.38;66.50;101846.13;5060184;28;20466;-48
2022/04/03 07:39:30;;;;;;;8.40;7.27;;;;;;;7.11;66.77;101846.94;5072641;28;20423;-48
2022/04/03 07:41:59;;;;;;;8.73;7.93;;;;;;;6.60;69.06;101852.75;5072019;28;20445;-48
2022/04/03 07:44:27;;;;;;;8.53;7.57;;;;;;;6.52;69.67;101842.88;5071452;28;20434;-47
2022/04/03 07:46:54;;;;;;;8.77;7.90;;;;;;;6.54;70.28;101846.19;5061014;28;20459;-49
2022/04/03 07:49:23;;;;;;;8.40;7.73;;;;;;;6.57;70.91;101843.25;5052714;28;20845;-49
2022/04/03 07:51:51;;;;;;;7.97;7.40;;;;;;;6.57;69.77;101845.91;5052137;28;20431;-48
2022/04/03 07:54:18;;;;;;;7.57;7.07;;;;;;;6.60;68.63;101839.50;5057457;28;20440;-47
2022/04/03 07:56:46;;;;;;;8.07;7.23;;;;;;;7.04;67.25;101846.72;5071958;28;20478;-46
2022/04/03 07:59:15;;;;;;;12.73;7.40;;;;;;;7.20;66.02;101841.59;5072761;28;20430;-48
2022/04/03 08:01:43;;;;;;;7.60;7.20;;;;;;;7.38;65.47;101848.78;5059896;28;20442;-50
2022/04/03 08:04:11;;;;;;;8.87;7.17;;;;;;;7.49;65.12;101838.78;5052747;28;20952;-50
2022/04/03 08:06:38;;;;;;;8.23;7.10;;;;;;;7.19;65.92;101839.13;5072177;28;20462;-45
2022/04/03 08:09:07;;;;;;;11.37;7.37;;;;;;;7.24;64.68;101844.81;5072307;28;20482;-45
2022/04/03 08:11:35;;;;;;;7.17;6.63;;;;;;;7.16;65.66;101842.91;5072494;28;20947;-47
2022/04/03 08:14:02;;;;;;;13.00;7.80;;;;;;;6.91;66.06;101845.38;5066084;28;20431;-47
2022/04/03 08:16:31;;;;;;;6.90;6.50;;;;;;;6.71;65.50;101844.63;5061467;28;20465;-47
2022/04/03 08:19:02;;;;;;;8.27;7.57;;;;;;;6.55;69.12;101845.22;5066963;28;20424;-46
2022/04/03 08:21:30;;;;;;;6.93;6.30;;;;;;;6.55;66.27;101839.94;5052061;28;20444;-47
2022/04/03 08:23:58;;;;;;;8.27;6.70;;;;;;;6.59;66.86;101843.97;5054125;28;20489;-45
2022/04/03 08:26:26;;;;;;;14.43;6.70;;;;;;;6.66;66.46;101844.19;5071528;28;20470;-48
2022/04/03 08:28:54;;;;;;;6.40;5.87;;;;;;;6.49;67.60;101839.66;5072234;28;20474;-48
2022/04/03 08:31:22;;;;;;;8.83;5.63;;;;;;;6.43;66.33;101834.94;5065818;28;20435;-49
2022/04/03 08:33:52;;;;;;;6.23;4.40;;;;;;;6.41;65.54;101828.94;5050557;28;20445;-45
2022/04/03 08:36:20;;;;;;;5.87;5.13;;;;;;;6.27;65.89;101832.06;5050642;28;20467;-46
2022/04/03 08:38:50;;;;;;;4.67;4.27;;;;;;;6.23;65.70;101822.72;5052561;28;20433;-45
2022/04/03 08:41:17;;;;;;;5.07;4.57;;;;;;;6.59;66.90;101832.53;5071637;28;20435;-44
2022/04/03 08:43:47;;;;;;;7.60;4.80;;;;;;;6.61;66.29;101838.50;5064884;28;20961;-47
2022/04/03 08:46:17;;;;;;;7.33;3.83;;;;;;;6.69;63.10;101830.66;5065063;28;20549;-46
2022/04/03 08:48:46;;;;;;;4.00;3.60;;;;;;;6.38;63.07;101837.19;5052869;28;20494;-49
2022/04/03 08:51:16;;;;;;;5.23;4.77;;;;;;;6.36;62.92;101836.50;5056778;28;20542;-47
2022/04/03 08:53:46;;;;;;;4.27;3.97;;;;;;;6.73;62.28;101825.91;5062111;28;20441;-44
2022/04/03 08:56:14;;;;;;;4.70;3.60;;;;;;;6.78;62.77;101831.63;5061804;28;20470;-47
2022/04/03 08:58:42;;;;;;;5.73;3.97;;;;;;;6.90;63.19;101820.69;5071627;28;20810;-44
2022/04/03 09:01:10;;;;;;;5.13;3.93;;;;;;;6.76;61.18;101828.28;5071063;28;20457;-46
2022/04/03 09:03:38;;;;;;;6.70;3.70;;;;;;;6.65;60.72;101829.31;5070103;28;20435;-46
2022/04/03 09:06:15;;;;;;;7.37;3.30;;;;;;;7.13;60.07;101829.09;5063989;28;20473;-50
2022/04/03 09:08:43;;;;;;;8.20;3.27;;;;;;;7.05;59.40;101826.31;5054831;28;20750;-45
2022/04/03 09:11:12;;;;;;;3.77;3.20;;;;;;;7.01;60.87;101832.91;5070749;28;20434;-44
2022/04/03 09:13:41;;;;;;;3.40;3.20;;;;;;;6.49;62.76;101829.06;5069265;28;20845;-46
2022/04/03 09:16:09;;;;;;;4.67;3.87;;;;;;;5.92;66.49;101819.38;5056994;28;20472;-45
2022/04/03 09:18:48;;;;;;;6.03;5.53;;;;;;;5.80;69.00;101823.97;5069131;28;20434;-49
2022/04/03 09:21:23;;;;;;;5.33;5.00;;;;;;;5.72;70.58;101828.28;5059731;28;20441;-47
2022/04/03 09:24:03;;;;;;;5.80;5.33;;;;;;;5.95;70.65;101816.47;5070008;28;20431;-46
2022/04/03 09:26:33;;;;;;;4.47;4.03;;;;;;;6.28;69.80;101816.00;5070412;28;21028;-45
2022/04/03 09:29:13;;;;;;;5.00;4.70;;;;;;;6.13;68.89;101812.97;5068462;28;20973;-46
2022/04/03 09:31:43;;;;;;;4.60;4.30;;;;;;;6.43;66.59;101813.72;5059763;28;20811;-46
2022/04/03 09:34:16;;;;;;;4.93;4.53;;;;;;;6.68;65.56;101810.47;5054432;28;20426;-44
2022/04/03 09:36:56;;;;;;;3.53;3.33;;;;;;;7.17;62.40;101803.91;5055141;28;20467;-46
2022/04/03 09:39:26;;;;;;;5.07;3.73;;;;;;;6.94;61.27;101811.47;5050944;28;20433;-46
2022/04/03 09:42:03;;;;;;;3.53;3.30;;;;;;;6.58;65.09;101830.84;5050686;28;20437;-45
2022/04/03 09:44:32;;;;;;;3.60;3.40;;;;;;;5.89;66.16;101831.09;5050482;28;20427;-49
2022/04/03 09:47:19;;;;;;;3.90;3.70;;;;;;;5.50;68.96;101824.06;5061581;28;20907;-44
2022/04/03 09:49:52;;;;;;;5.10;3.80;;;;;;;5.32;71.20;101831.84;5051033;28;20474;-45
2022/04/03 09:52:35;;;;;;;3.80;3.60;;;;;;;5.16;71.97;101825.41;5051327;28;20428;-47
2022/04/03 09:55:07;;;;;;;5.67;5.27;;;;;;;5.16;74.61;101841.28;5068657;28;20454;-46
2022/04/03 09:57:40;;;;;;;8.60;8.40;;;;;;;4.89;77.48;101841.88;5071325;28;20430;-45
2022/04/03 10:00:31;;;;;;;8.47;8.10;;;;;;;4.78;79.07;101834.06;5056066;28;20446;-47
2022/04/03 10:03:02;;;;;;;8.80;8.20;;;;;;;4.81;80.00;101821.41;5049665;28;20442;-47
2022/04/03 10:05:31;;;;;;;8.80;8.30;;;;;;;4.90;80.62;101809.19;5062852;28;20569;-45
2022/04/03 10:08:02;;;;;;;8.97;8.20;;;;;;;5.21;81.81;101799.41;5051109;28;20438;-45
2022/04/03 10:10:31;;;;;;;8.83;8.13;;;;;;;5.43;80.78;101804.47;5050116;28;20475;-46
2022/04/03 10:12:59;;;;;;;7.10;6.50;;;;;;;5.73;81.13;101803.50;5059727;28;20442;-46
2022/04/03 10:15:28;;;;;;;6.43;6.07;;;;;;;5.88;78.49;101794.19;5065542;28;20467;-45
2022/04/03 10:17:56;;;;;;;7.27;7.00;;;;;;;6.31;78.08;101794.53;5071177;28;20411;-48
2022/04/03 10:20:26;;;;;;;6.93;6.53;;;;;;;6.63;75.74;101783.56;5070208;28;20452;-45
2022/04/03 10:22:57;;;;;;;6.40;6.10;;;;;;;6.86;73.24;101784.84;5068430;28;20430;-46
2022/04/03 10:25:30;;;;;;;6.53;6.13;;;;;;;7.23;72.69;101771.50;5058217;28;20833;-44
2022/04/03 10:28:02;;;;;;;10.40;6.93;;;;;;;7.47;70.67;101768.25;5071212;28;20418;-47
2022/04/03 10:30:38;;;;;;;7.27;6.77;;;;;;;7.65;69.11;101769.09;5068814;28;20867;-50
2022/04/03 10:33:06;;;;;;;7.40;7.10;;;;;;;7.44;70.34;101768.53;5060696;28;20434;-45
2022/04/03 10:35:36;;;;;;;7.10;6.70;;;;;;;7.46;70.07;101771.91;5063471;28;20473;-49
2022/04/03 10:38:05;;;;;;;5.73;5.50;;;;;;;7.07;64.28;101766.88;5050755;28;20806;-44
2022/04/03 10:40:36;;;;;;;4.80;4.40;;;;;;;6.73;63.78;101763.13;5057472;28;20538;-45
2022/04/03 10:43:06;;;;;;;4.77;4.20;;;;;;;6.89;64.30;101763.34;5069245;28;20422;-47
2022/04/03 10:45:35;;;;;;;4.07;3.87;;;;;;;6.94;63.96;101755.78;5063829;28;20525;-45
2022/04/03 10:48:26;;;;;;;3.70;3.40;;;;;;;7.19;63.71;101747.09;5057654;28;20427;-47
2022/04/03 10:50:59;;;;;;;4.87;4.47;;;;;;;7.69;62.49;101736.78;5067702;28;20556;-45
2022/04/03 10:53:30;;;;;;;4.20;3.80;;;;;;;7.73;59.25;101732.00;5068883;28;20437;-48
2022/04/03 10:56:02;;;;;;;3.97;3.53;;;;;;;7.56;61.25;101735.50;5052505;28;20471;-48
2022/04/03 10:58:41;;;;;;;5.07;3.80;;;;;;;7.23;64.41;101742.31;5051849;28;20437;-46
2022/04/03 11:01:11;;;;;;;6.80;3.80;;;;;;;7.17;66.09;101742.91;5053537;28;20439;-48
2022/04/03 11:03:40;;;;;;;4.07;2.93;;;;;;;7.11;63.23;101738.19;5052595;28;20431;-48
2022/04/03 11:06:28;;;;;;;2.63;2.53;;;;;;;6.98;63.24;101737.75;5060006;28;20532;-47
2022/04/03 11:09:01;;;;;;;3.10;2.90;;;;;;;7.02;66.09;101739.94;5073644;28;20426;-45
2022/04/03 11:11:36;;;;;;;8.17;3.70;;;;;;;7.07;65.56;101729.75;5073475;28;20474;-46
2022/04/03 11:14:06;;;;;;;6.27;4.33;;;;;;;7.18;65.78;101733.97;5064987;28;20430;-51
2022/04/03 11:16:52;;;;;;;3.50;3.20;;;;;;;7.37;66.10;101733.84;5073076;28;20458;-49
2022/04/03 11:19:34;;;;;;;6.90;4.57;;;;;;;7.31;65.40;101736.28;5065159;28;20435;-45
2022/04/03 11:22:03;;;;;;;4.00;3.80;;;;;;;7.32;64.27;101732.63;5052331;28;20431;-48
2022/04/03 11:24:31;;;;;;;3.57;3.37;;;;;;;6.99;63.79;101724.31;5066981;28;20434;-46
2022/04/03 11:27:00;;;;;;;7.93;4.63;;;;;;;7.12;65.53;101726.63;5073735;28;20553;-44
2022/04/03 11:29:28;;;;;;;3.80;3.50;;;;;;;7.27;62.98;101722.47;5073516;28;20438;-45
2022/04/03 11:31:57;;;;;;;3.27;2.97;;;;;;;7.58;61.32;101709.66;5072970;28;20476;-47